Time;durP1;ratioP1;P1;durP2;ratioP2;P2;SDS_P1;SDS_P2;PMS_P1;PMS_P2;Temp;Humidity;BMP_temperature;BMP_pressure;BME280_temperature;BME280_humidity;BME280_pressure;Samples;Min_cycle;Max_cycle;Signal;HPM_P1;HPM_P2
2023/10/04 00:02:06;;;;;;;3.63;1.70;;;15.30;99.90;;;;;;5013635;28;20619;-76
2023/10/04 00:04:34;;;;;;;6.33;1.60;;;15.30;99.90;;;;;;5031474;28;20624;-76
2023/10/04 00:07:03;;;;;;;4.90;1.57;;;15.30;99.90;;;;;;5031131;28;20972;-76
2023/10/04 00:09:29;;;;;;;5.70;1.50;;;15.30;99.90;;;;;;5023126;28;20596;-76
2023/10/04 00:11:55;;;;;;;3.27;1.20;;;15.20;99.90;;;;;;4997172;28;20652;-76
2023/10/04 00:14:22;;;;;;;4.43;1.37;;;15.20;99.90;;;;;;5031019;28;20619;-76
2023/10/04 00:16:48;;;;;;;7.13;1.47;;;15.20;99.90;;;;;;5031275;28;20334;-76
2023/10/04 00:19:14;;;;;;;3.20;1.20;;;15.20;99.90;;;;;;5030980;28;20619;-77
2023/10/04 00:21:41;;;;;;;6.20;1.40;;;15.20;99.90;;;;;;5013421;28;20635;-77
2023/10/04 00:24:09;;;;;;;5.40;1.23;;;15.20;99.90;;;;;;5031021;28;20620;-76
2023/10/04 00:26:36;;;;;;;4.23;1.33;;;15.10;99.90;;;;;;5030859;28;20607;-77
2023/10/04 00:29:05;;;;;;;6.57;1.90;;;15.10;99.90;;;;;;5013383;28;20634;-76
2023/10/04 00:31:36;;;;;;;7.70;2.00;;;15.10;99.90;;;;;;5030839;28;20662;-77
2023/10/04 00:34:03;;;;;;;5.73;1.40;;;15.10;99.90;;;;;;5029682;28;20616;-77
2023/10/04 00:36:29;;;;;;;4.67;1.63;;;15.10;99.90;;;;;;5030748;28;20581;-76
2023/10/04 00:38:55;;;;;;;5.20;2.37;;;15.10;99.90;;;;;;5013377;28;20639;-77
2023/10/04 00:41:22;;;;;;;5.40;2.30;;;15.10;99.90;;;;;;4996709;28;20235;-76
2023/10/04 00:43:51;;;;;;;5.20;2.57;;;15.00;99.90;;;;;;5030856;28;20620;-76
2023/10/04 00:46:22;;;;;;;5.70;2.10;;;15.00;99.90;;;;;;5012887;28;20595;-76
2023/10/04 00:48:49;;;;;;;6.47;2.73;;;15.00;99.90;;;;;;5012803;28;21175;-76
2023/10/04 00:51:16;;;;;;;6.87;2.47;;;14.90;99.90;;;;;;5030573;28;20640;-77
2023/10/04 00:53:43;;;;;;;5.87;1.83;;;14.90;99.90;;;;;;5013039;28;20620;-77
2023/10/04 00:56:10;;;;;;;6.03;2.17;;;14.90;99.90;;;;;;5012688;28;20599;-76
2023/10/04 00:58:36;;;;;;;6.57;1.77;;;14.90;99.90;;;;;;5012952;28;20588;-77
2023/10/04 01:01:04;;;;;;;5.70;1.60;;;14.90;99.90;;;;;;5030536;28;21182;-77
2023/10/04 01:03:34;;;;;;;5.00;1.30;;;14.90;99.90;;;;;;4996668;28;20616;-76
2023/10/04 01:06:01;;;;;;;4.77;1.43;;;14.90;99.90;;;;;;5005276;28;20674;-76
2023/10/04 01:08:40;;;;;;;7.57;2.07;;;14.90;99.90;;;;;;5024555;28;20987;-77
2023/10/04 01:11:06;;;;;;;4.70;1.17;;;14.90;99.90;;;;;;4996369;28;20636;-76
2023/10/04 01:13:32;;;;;;;4.00;1.30;;;14.90;99.90;;;;;;4996348;28;20659;-76
2023/10/04 01:15:59;;;;;;;5.17;1.87;;;14.90;99.90;;;;;;4996269;28;20584;-76
2023/10/04 01:18:28;;;;;;;2.93;1.10;;;14.90;99.90;;;;;;4996245;28;20672;-76
2023/10/04 01:20:55;;;;;;;5.20;1.53;;;14.90;99.90;;;;;;4989482;28;20957;-76
2023/10/04 01:23:21;;;;;;;5.95;1.67;;;14.90;99.90;;;;;;5003546;28;21235;-76
2023/10/04 01:25:47;;;;;;;6.47;1.93;;;14.90;99.90;;;;;;4996260;28;20256;-76
2023/10/04 01:28:27;;;;;;;5.60;1.40;;;14.90;99.90;;;;;;4996351;28;20926;-76
2023/10/04 01:30:54;;;;;;;4.37;1.10;;;14.80;99.90;;;;;;5013040;28;20644;-76
2023/10/04 01:33:21;;;;;;;4.90;1.20;;;14.80;99.90;;;;;;5013596;28;21181;-77
2023/10/04 01:35:54;;;;;;;6.07;1.37;;;14.80;99.90;;;;;;5012590;28;20642;-76
2023/10/04 01:38:32;;;;;;;4.67;1.30;;;14.80;99.90;;;;;;5012718;28;20631;-77
2023/10/04 01:40:58;;;;;;;1.97;0.90;;;14.80;99.90;;;;;;4996296;28;20592;-76
2023/10/04 01:43:25;;;;;;;8.30;1.70;;;14.80;99.90;;;;;;5030191;28;20628;-76
2023/10/04 01:45:53;;;;;;;4.55;2.03;;;14.80;99.90;;;;;;5012529;28;20607;-76
2023/10/04 01:48:19;;;;;;;3.93;1.13;;;14.80;99.90;;;;;;5012607;28;20185;-77
2023/10/04 01:50:51;;;;;;;8.60;1.90;;;14.70;99.90;;;;;;4995946;28;21193;-76
2023/10/04 01:53:18;;;;;;;5.20;1.20;;;14.80;99.90;;;;;;5004380;28;21253;-76
2023/10/04 01:55:44;;;;;;;3.53;1.10;;;14.70;99.90;;;;;;5012386;28;20581;-76
2023/10/04 01:58:10;;;;;;;5.17;1.40;;;14.80;99.90;;;;;;4995964;28;20642;-76
2023/10/04 02:00:36;;;;;;;4.97;1.20;;;14.80;99.90;;;;;;5014829;28;20600;-76
2023/10/04 02:03:02;;;;;;;6.20;1.07;;;14.70;99.90;;;;;;5033751;28;20284;-77
2023/10/04 02:05:31;;;;;;;4.47;1.10;;;14.80;99.90;;;;;;5015695;28;20204;-76
2023/10/04 02:08:01;;;;;;;5.38;1.20;;;14.80;99.90;;;;;;5016526;28;20596;-77
2023/10/04 02:10:28;;;;;;;3.10;1.00;;;14.80;99.90;;;;;;5015991;28;20202;-76
2023/10/04 02:12:55;;;;;;;2.73;1.37;;;14.80;99.90;;;;;;5034564;28;21277;-76
2023/10/04 02:15:21;;;;;;;9.17;1.33;;;14.80;99.90;;;;;;5035596;28;20584;-77
2023/10/04 02:17:47;;;;;;;5.37;1.20;;;14.80;99.90;;;;;;5001353;28;20595;-77
2023/10/04 02:20:24;;;;;;;3.10;1.10;;;14.80;99.90;;;;;;5000805;28;20607;-76
2023/10/04 02:22:51;;;;;;;4.17;1.13;;;14.80;99.90;;;;;;5007700;28;20188;-76
2023/10/04 02:25:19;;;;;;;7.20;1.60;;;14.80;99.90;;;;;;4999212;28;21189;-76
2023/10/04 02:27:45;;;;;;;3.57;1.00;;;14.80;99.90;;;;;;4999496;28;20583;-76
2023/10/04 02:30:19;;;;;;;6.00;1.10;;;14.90;99.90;;;;;;5015341;28;21069;-77
2023/10/04 02:32:45;;;;;;;3.93;1.00;;;14.80;99.90;;;;;;4999246;28;20584;-76
2023/10/04 02:35:21;;;;;;;5.20;1.40;;;14.90;99.90;;;;;;5000985;28;20619;-76
2023/10/04 02:37:53;;;;;;;5.50;2.10;;;14.90;99.90;;;;;;4999030;28;20580;-76
2023/10/04 02:40:21;;;;;;;4.50;1.20;;;14.90;99.90;;;;;;4999217;28;20589;-77
2023/10/04 02:42:47;;;;;;;6.33;1.00;;;14.90;99.90;;;;;;4999089;28;20600;-76
2023/10/04 02:45:18;;;;;;;5.70;1.10;;;15.00;99.90;;;;;;4999161;28;21256;-76
2023/10/04 02:47:48;;;;;;;4.13;1.00;;;15.00;99.90;;;;;;5015327;28;20588;-76
2023/10/04 02:50:16;;;;;;;5.20;1.00;;;15.00;99.90;;;;;;5015256;28;21002;-76
2023/10/04 02:52:41;;;;;;;3.27;1.00;;;15.00;99.90;;;;;;5011161;28;20621;-76
2023/10/04 02:55:07;;;;;;;10.90;1.50;;;15.10;99.90;;;;;;4995852;28;20652;-76
2023/10/04 02:57:33;;;;;;;2.73;1.00;;;15.10;99.90;;;;;;4987420;28;20174;-76
2023/10/04 03:00:10;;;;;;;3.53;1.33;;;15.10;99.90;;;;;;5021680;28;20178;-76
2023/10/04 03:02:37;;;;;;;3.43;0.90;;;15.10;99.90;;;;;;5014050;28;20264;-77
2023/10/04 03:05:06;;;;;;;3.93;1.00;;;15.20;99.90;;;;;;5003380;28;20619;-76
2023/10/04 03:07:32;;;;;;;4.80;1.00;;;15.20;99.90;;;;;;5015536;28;20603;-76
2023/10/04 03:09:58;;;;;;;7.20;1.00;;;15.20;99.90;;;;;;5016054;28;20584;-77
2023/10/04 03:12:24;;;;;;;2.70;1.30;;;15.20;99.90;;;;;;5033457;28;20638;-77
2023/10/04 03:14:50;;;;;;;7.17;1.20;;;15.20;99.90;;;;;;4999549;28;20697;-76
2023/10/04 03:17:16;;;;;;;3.43;0.90;;;15.20;99.90;;;;;;5015625;28;20679;-76
2023/10/04 03:19:47;;;;;;;4.80;1.40;;;15.20;99.90;;;;;;4999472;28;20714;-76
2023/10/04 03:22:22;;;;;;;3.10;0.90;;;15.20;99.90;;;;;;5000072;28;20679;-76
2023/10/04 03:24:53;;;;;;;6.93;1.00;;;15.20;99.90;;;;;;5015509;28;20967;-76
2023/10/04 03:27:21;;;;;;;4.33;1.13;;;15.20;99.90;;;;;;4998871;28;20584;-77
2023/10/04 03:29:48;;;;;;;7.00;1.13;;;15.20;99.90;;;;;;5033186;28;20585;-76
2023/10/04 03:32:15;;;;;;;7.90;1.30;;;15.20;99.90;;;;;;5011620;28;20693;-76
2023/10/04 03:34:40;;;;;;;3.60;1.20;;;15.20;99.90;;;;;;5030770;28;21025;-76
2023/10/04 03:37:13;;;;;;;3.77;1.50;;;15.30;99.90;;;;;;5031457;28;20604;-76
2023/10/04 03:39:40;;;;;;;5.73;1.40;;;15.20;99.90;;;;;;5014482;28;20661;-77
2023/10/04 03:42:06;;;;;;;4.53;1.30;;;15.30;99.90;;;;;;5055987;28;20573;-76
2023/10/04 03:44:32;;;;;;;4.43;1.13;;;15.30;99.90;;;;;;5038756;28;20631;-77
2023/10/04 03:47:00;;;;;;;2.60;1.10;;;15.30;99.90;;;;;;5038322;28;20696;-77
2023/10/04 03:49:27;;;;;;;4.00;1.10;;;15.30;99.90;;;;;;5035303;28;20577;-76
2023/10/04 03:51:53;;;;;;;7.00;1.07;;;15.30;99.90;;;;;;5010775;28;20635;-77
2023/10/04 03:54:20;;;;;;;4.10;1.10;;;15.30;99.90;;;;;;5015069;28;20613;-76
2023/10/04 03:56:46;;;;;;;6.20;0.90;;;15.30;99.90;;;;;;5014009;28;20584;-76
2023/10/04 03:59:12;;;;;;;3.00;1.00;;;15.30;99.90;;;;;;5014343;28;20414;-77
2023/10/04 04:01:38;;;;;;;7.50;1.87;;;15.30;99.90;;;;;;5013857;28;20213;-77
2023/10/04 04:04:07;;;;;;;7.23;1.40;;;15.30;99.90;;;;;;5013822;28;20204;-77
2023/10/04 04:06:32;;;;;;;5.10;1.30;;;15.30;99.90;;;;;;4997134;28;20592;-77
2023/10/04 04:09:03;;;;;;;5.90;1.00;;;15.30;99.90;;;;;;4981176;28;20647;-77
2023/10/04 04:11:28;;;;;;;4.30;1.83;;;15.20;99.90;;;;;;5013598;28;20636;-75
2023/10/04 04:13:57;;;;;;;6.10;1.30;;;15.30;99.90;;;;;;4997113;28;20659;-76
2023/10/04 04:16:23;;;;;;;4.53;1.13;;;15.20;99.90;;;;;;4996875;28;20177;-76
2023/10/04 04:18:54;;;;;;;5.30;1.33;;;15.20;99.90;;;;;;5013668;28;21006;-75
2023/10/04 04:21:20;;;;;;;5.10;1.10;;;15.20;99.90;;;;;;5013516;28;20664;-75
2023/10/04 04:23:46;;;;;;;3.20;1.10;;;15.20;99.90;;;;;;5012842;28;20639;-77
2023/10/04 04:26:14;;;;;;;2.60;1.00;;;15.20;99.90;;;;;;5013107;28;20608;-76
2023/10/04 04:28:41;;;;;;;3.30;1.20;;;15.20;99.90;;;;;;4997151;28;20593;-75
2023/10/04 04:31:14;;;;;;;4.80;1.90;;;15.20;99.90;;;;;;4996751;28;20639;-75
2023/10/04 04:33:41;;;;;;;7.00;1.20;;;15.10;99.90;;;;;;4996927;28;20746;-75
2023/10/04 04:36:15;;;;;;;3.77;1.13;;;15.10;99.90;;;;;;5013128;28;20596;-76
2023/10/04 04:38:42;;;;;;;4.80;1.23;;;15.10;99.90;;;;;;5013529;28;20585;-76
2023/10/04 04:41:12;;;;;;;4.57;1.30;;;15.00;99.90;;;;;;5013319;28;20580;-76
2023/10/04 04:43:39;;;;;;;4.30;1.00;;;15.00;99.90;;;;;;5013177;28;20205;-76
2023/10/04 04:46:13;;;;;;;6.30;1.27;;;15.00;99.90;;;;;;4996702;28;20587;-76
2023/10/04 04:48:41;;;;;;;11.37;1.50;;;14.90;99.90;;;;;;4996799;28;20948;-76
2023/10/04 04:51:17;;;;;;;7.50;1.50;;;14.90;99.90;;;;;;5005453;28;20698;-76
2023/10/04 04:53:53;;;;;;;9.60;1.50;;;14.80;99.90;;;;;;4999104;28;20639;-76
2023/10/04 04:56:23;;;;;;;3.67;1.30;;;14.80;99.90;;;;;;4996838;28;20581;-76
2023/10/04 04:58:52;;;;;;;6.43;1.57;;;14.80;99.90;;;;;;4996737;28;20696;-76
2023/10/04 05:01:18;;;;;;;5.60;1.17;;;14.70;99.90;;;;;;4996477;28;20580;-76
2023/10/04 05:03:46;;;;;;;3.93;1.20;;;14.70;99.90;;;;;;5013206;28;20620;-77
2023/10/04 05:06:22;;;;;;;7.67;1.27;;;14.70;99.90;;;;;;5005028;28;20593;-76
2023/10/04 05:08:54;;;;;;;6.03;1.23;;;14.60;99.90;;;;;;4997574;28;20263;-76
2023/10/04 05:11:20;;;;;;;5.53;1.20;;;14.60;99.90;;;;;;5005513;28;20640;-76
2023/10/04 05:13:47;;;;;;;5.90;2.20;;;14.60;99.90;;;;;;5030495;28;20624;-76
2023/10/04 05:16:12;;;;;;;6.97;1.30;;;14.50;99.90;;;;;;5012708;28;21027;-76
2023/10/04 05:18:39;;;;;;;5.73;1.63;;;14.50;99.90;;;;;;5030486;28;20672;-76
2023/10/04 05:21:05;;;;;;;6.50;1.10;;;14.50;99.90;;;;;;5012732;28;21154;-76
2023/10/04 05:23:31;;;;;;;3.10;1.20;;;14.50;99.90;;;;;;5012781;28;20620;-76
2023/10/04 05:25:57;;;;;;;8.60;1.47;;;14.50;99.90;;;;;;5012593;28;20691;-76
2023/10/04 05:28:24;;;;;;;3.60;1.10;;;14.40;99.90;;;;;;5035265;22;21018;-78
2023/10/04 05:30:51;;;;;;;8.90;1.30;;;14.40;99.90;;;;;;5030710;28;20640;-77
2023/10/04 05:33:21;;;;;;;5.30;1.50;;;14.40;99.90;;;;;;5030578;28;20572;-77
2023/10/04 05:35:51;;;;;;;3.70;1.57;;;14.40;99.90;;;;;;5032025;28;20583;-77
2023/10/04 05:38:17;;;;;;;5.60;1.60;;;14.40;99.90;;;;;;5016744;28;20694;-77
2023/10/04 05:40:45;;;;;;;5.73;1.30;;;14.30;99.90;;;;;;5008623;28;20688;-77
2023/10/04 05:43:12;;;;;;;5.32;1.33;;;14.30;99.90;;;;;;5018980;28;20190;-77
2023/10/04 05:45:39;;;;;;;4.40;1.27;;;14.30;99.90;;;;;;5015931;28;20177;-77
2023/10/04 05:48:06;;;;;;;3.90;1.30;;;14.30;99.90;;;;;;5010045;28;20632;-77
2023/10/04 05:50:32;;;;;;;6.00;1.60;;;14.20;99.90;;;;;;5004967;28;20674;-77
2023/10/04 05:53:02;;;;;;;5.20;1.40;;;14.20;99.90;;;;;;5022652;28;20608;-77
2023/10/04 05:55:28;;;;;;;4.90;2.03;;;14.20;99.90;;;;;;5023650;28;20645;-77
2023/10/04 05:57:55;;;;;;;4.90;1.67;;;14.20;99.90;;;;;;5011150;28;20613;-77
2023/10/04 06:00:28;;;;;;;6.73;1.40;;;14.20;99.90;;;;;;5013056;28;20583;-77
2023/10/04 06:03:01;;;;;;;6.27;1.10;;;14.20;99.90;;;;;;5008648;28;20630;-77
2023/10/04 06:05:28;;;;;;;6.30;1.47;;;14.20;99.90;;;;;;4989381;28;20588;-78
2023/10/04 06:07:59;;;;;;;4.43;1.00;;;14.30;99.90;;;;;;5027455;28;20663;-77
2023/10/04 06:10:25;;;;;;;3.37;1.30;;;14.30;99.90;;;;;;5013294;28;20650;-77
2023/10/04 06:12:56;;;;;;;6.70;1.63;;;14.30;99.90;;;;;;5033575;28;20584;-77
2023/10/04 06:15:24;;;;;;;8.93;1.47;;;14.30;99.90;;;;;;5007790;28;20640;-77
2023/10/04 06:17:51;;;;;;;8.37;1.20;;;14.30;99.90;;;;;;5029508;28;20620;-77
2023/10/04 06:22:59;;;;;;;4.77;1.63;;;14.40;99.90;;;;;;5018756;28;20637;-78
2023/10/04 06:25:26;;;;;;;5.07;1.67;;;14.50;99.90;;;;;;5025306;28;20581;-78
2023/10/04 06:27:54;;;;;;;9.00;1.53;;;14.50;99.90;;;;;;5007318;28;20624;-77
2023/10/04 06:30:22;;;;;;;4.83;1.30;;;14.50;99.90;;;;;;5033626;28;21104;-77
2023/10/04 06:32:49;;;;;;;6.40;2.17;;;14.60;99.90;;;;;;4991537;28;20767;-76
2023/10/04 06:35:16;;;;;;;7.70;1.50;;;14.70;99.90;;;;;;5015852;28;20631;-76
2023/10/04 06:37:41;;;;;;;6.73;2.10;;;14.70;99.90;;;;;;5030353;28;20792;-76
2023/10/04 06:40:15;;;;;;;7.07;1.40;;;14.80;99.90;;;;;;5004754;28;21013;-76
2023/10/04 06:42:43;;;;;;;7.90;1.30;;;14.80;99.90;;;;;;4991045;28;20181;-76
2023/10/04 06:45:09;;;;;;;5.40;1.63;;;14.90;99.90;;;;;;5014902;28;20667;-76
2023/10/04 06:47:35;;;;;;;4.57;1.17;;;15.00;99.90;;;;;;4998576;28;20719;-76
2023/10/04 06:50:02;;;;;;;6.00;1.20;;;15.10;99.90;;;;;;5027620;28;20680;-77
2023/10/04 06:52:28;;;;;;;3.77;1.00;;;15.10;99.90;;;;;;5012320;28;20595;-76
2023/10/04 06:54:54;;;;;;;6.87;1.23;;;15.20;99.90;;;;;;5015304;28;20679;-77
2023/10/04 06:57:20;;;;;;;6.13;1.50;;;15.30;99.90;;;;;;5032803;28;20551;-76
2023/10/04 06:59:46;;;;;;;5.43;1.40;;;15.40;99.90;;;;;;5028770;28;20667;-77
2023/10/04 07:02:12;;;;;;;6.47;1.30;;;15.40;99.90;;;;;;5003743;28;20581;-77
2023/10/04 07:04:37;;;;;;;8.00;1.70;;;15.50;99.90;;;;;;5013689;28;20557;-77
2023/10/04 07:07:03;;;;;;;5.43;1.93;;;15.60;99.90;;;;;;5001431;28;20601;-77
2023/10/04 07:09:29;;;;;;;4.80;1.70;;;15.70;99.90;;;;;;5012431;28;20553;-77
2023/10/04 07:11:54;;;;;;;5.13;1.33;;;15.90;99.90;;;;;;5028396;28;20198;-76
2023/10/04 07:14:20;;;;;;;8.43;2.90;;;15.90;99.90;;;;;;5021234;28;20170;-76
2023/10/04 07:16:46;;;;;;;6.50;1.30;;;16.00;99.90;;;;;;4984997;28;20173;-77
2023/10/04 07:19:14;;;;;;;9.03;1.87;;;16.10;99.90;;;;;;5014907;28;20611;-77
2023/10/04 07:21:40;;;;;;;7.60;1.47;;;16.20;99.90;;;;;;5014748;28;20208;-77
2023/10/04 07:24:06;;;;;;;8.60;1.70;;;16.30;99.90;;;;;;5009232;28;20732;-76
2023/10/04 07:26:35;;;;;;;5.57;1.80;;;16.40;99.90;;;;;;5020865;28;20589;-77
2023/10/04 07:29:02;;;;;;;6.60;1.53;;;16.50;99.90;;;;;;4995035;28;20213;-77
2023/10/04 07:31:28;;;;;;;5.70;2.20;;;16.60;99.90;;;;;;5029334;28;20640;-77
2023/10/04 07:33:54;;;;;;;5.13;1.43;;;16.60;99.90;;;;;;5014629;28;20588;-77
2023/10/04 07:36:19;;;;;;;4.37;1.00;;;16.80;99.90;;;;;;4998814;28;21192;-77
2023/10/04 07:38:46;;;;;;;4.37;1.20;;;16.80;99.90;;;;;;5005752;28;20589;-76
2023/10/04 07:41:11;;;;;;;4.73;1.50;;;17.00;99.90;;;;;;5006391;28;20585;-77
2023/10/04 07:43:37;;;;;;;7.37;1.40;;;17.30;99.90;;;;;;5004488;28;20595;-76
2023/10/04 07:46:04;;;;;;;4.27;1.30;;;17.80;99.90;;;;;;5017380;28;20721;-77
2023/10/04 07:48:30;;;;;;;5.77;1.20;;;18.40;99.90;;;;;;5013802;28;20267;-76
2023/10/04 07:50:55;;;;;;;6.60;1.33;;;19.10;99.90;;;;;;5023067;28;20636;-77
2023/10/04 07:53:21;;;;;;;12.67;1.30;;;19.90;99.90;;;;;;5032874;28;20568;-77
2023/10/04 07:55:51;;;;;;;8.93;1.70;;;20.70;99.90;;;;;;5014075;28;20217;-77
2023/10/04 07:58:17;;;;;;;3.70;1.40;;;21.50;99.90;;;;;;5013106;28;20608;-77
2023/10/04 08:00:43;;;;;;;4.13;1.33;;;22.30;99.90;;;;;;5031600;28;21192;-77
2023/10/04 08:03:09;;;;;;;4.33;1.60;;;23.00;99.90;;;;;;5013782;28;20590;-77
2023/10/04 08:05:35;;;;;;;5.10;1.40;;;23.70;99.90;;;;;;5013564;28;20181;-77
2023/10/04 08:08:03;;;;;;;12.13;1.70;;;24.40;99.90;;;;;;5013813;28;20635;-77
2023/10/04 08:10:33;;;;;;;6.93;1.90;;;25.10;99.90;;;;;;5013612;28;20214;-77
2023/10/04 08:13:01;;;;;;;5.97;1.80;;;25.80;99.90;;;;;;5031521;28;20683;-77
2023/10/04 08:15:32;;;;;;;3.67;1.30;;;26.40;99.90;;;;;;5013706;28;20594;-77
2023/10/04 08:17:59;;;;;;;3.47;1.23;;;27.00;99.90;;;;;;5013573;28;20616;-77
2023/10/04 08:20:32;;;;;;;4.80;1.43;;;27.60;99.90;;;;;;5031271;28;20594;-77
2023/10/04 08:23:04;;;;;;;4.23;1.10;;;28.10;99.90;;;;;;5031399;28;20573;-77
2023/10/04 08:25:32;;;;;;;5.10;1.30;;;28.60;99.90;;;;;;5013490;28;20584;-77
2023/10/04 08:27:57;;;;;;;4.17;1.20;;;29.10;99.90;;;;;;5031049;28;20634;-77
2023/10/04 08:30:25;;;;;;;4.00;1.23;;;29.60;99.90;;;;;;5015152;28;20631;-77
2023/10/04 08:32:51;;;;;;;3.37;1.17;;;30.00;99.90;;;;;;5031486;28;20572;-77
2023/10/04 08:35:27;;;;;;;4.17;1.53;;;30.30;99.90;;;;;;4997142;28;20594;-77
2023/10/04 08:37:55;;;;;;;6.17;1.50;;;30.70;99.90;;;;;;5013236;28;20627;-77
2023/10/04 08:40:29;;;;;;;4.23;1.40;;;31.00;99.90;;;;;;5013514;28;20590;-78
2023/10/04 08:42:56;;;;;;;5.53;1.40;;;31.30;99.90;;;;;;5031119;28;20601;-77
2023/10/04 08:45:24;;;;;;;4.20;1.20;;;31.70;99.90;;;;;;5013429;28;20654;-77
2023/10/04 08:47:51;;;;;;;3.27;1.50;;;32.00;99.90;;;;;;5012931;28;21221;-77
2023/10/04 08:50:40;;;;;;;4.10;1.30;;;32.30;99.90;;;;;;5013055;28;20631;-77
2023/10/04 08:53:32;;;;;;;3.93;1.40;;;32.50;99.40;;;;;;4996869;28;20576;-77
2023/10/04 08:56:05;;;;;;;3.50;1.20;;;32.80;99.70;;;;;;5030841;28;20577;-77
2023/10/04 08:58:31;;;;;;;3.20;1.43;;;33.00;99.10;;;;;;5013026;28;21052;-77
2023/10/04 09:00:58;;;;;;;4.20;1.50;;;33.10;98.90;;;;;;5013034;28;20590;-77
2023/10/04 09:03:25;;;;;;;5.57;1.43;;;33.10;97.40;;;;;;4996641;28;20657;-77
2023/10/04 09:05:54;;;;;;;4.87;1.63;;;33.00;96.60;;;;;;5031002;28;20622;-77
2023/10/04 09:08:22;;;;;;;5.57;1.70;;;32.90;94.90;;;;;;5014453;28;20695;-77
2023/10/04 09:10:47;;;;;;;3.50;1.60;;;32.60;93.70;;;;;;5034941;28;20619;-77
2023/10/04 09:13:13;;;;;;;5.03;1.93;;;32.40;92.90;;;;;;5035069;28;21169;-77
2023/10/04 09:15:40;;;;;;;3.73;1.27;;;32.20;92.50;;;;;;5017193;28;20207;-77
2023/10/04 09:18:07;;;;;;;5.23;1.63;;;32.00;92.00;;;;;;5000844;28;20609;-77
2023/10/04 09:20:33;;;;;;;6.53;1.60;;;31.60;91.40;;;;;;5017088;28;20589;-77
2023/10/04 09:22:59;;;;;;;5.77;1.80;;;31.20;90.30;;;;;;5017011;28;20603;-77
2023/10/04 09:25:36;;;;;;;4.47;1.20;;;30.80;89.70;;;;;;5034747;28;20588;-77
2023/10/04 09:28:04;;;;;;;3.83;1.30;;;30.60;89.80;;;;;;5016643;28;20631;-77
2023/10/04 09:30:30;;;;;;;3.70;1.57;;;30.40;91.20;;;;;;5016888;28;21319;-76
2023/10/04 09:32:56;;;;;;;4.70;1.23;;;30.40;91.20;;;;;;5026509;28;20679;-77
2023/10/04 09:35:21;;;;;;;5.50;1.70;;;30.30;90.90;;;;;;5034735;28;20589;-76
2023/10/04 09:37:51;;;;;;;7.40;2.50;;;30.40;91.00;;;;;;5016590;28;21254;-76
2023/10/04 09:40:18;;;;;;;4.20;2.53;;;30.60;90.80;;;;;;5017484;28;20172;-76
2023/10/04 09:42:56;;;;;;;6.23;2.27;;;30.80;91.30;;;;;;5007684;28;20960;-77
2023/10/04 09:45:26;;;;;;;4.50;1.63;;;31.00;89.80;;;;;;4996587;28;20599;-77
2023/10/04 09:47:53;;;;;;;4.27;1.73;;;31.40;90.60;;;;;;5016382;28;20643;-76
2023/10/04 09:50:24;;;;;;;4.50;1.80;;;31.60;90.30;;;;;;5034511;28;20635;-77
2023/10/04 09:52:51;;;;;;;4.67;1.47;;;32.00;89.40;;;;;;5016555;28;20594;-77
2023/10/04 09:55:17;;;;;;;4.00;1.90;;;32.20;88.60;;;;;;5016537;28;20586;-77
2023/10/04 09:57:44;;;;;;;4.60;1.77;;;32.40;87.50;;;;;;5016466;28;21042;-77
2023/10/04 10:00:22;;;;;;;4.87;1.67;;;32.20;83.20;;;;;;5016586;28;20610;-77
2023/10/04 10:02:52;;;;;;;5.60;1.50;;;32.00;79.60;;;;;;5026125;28;20581;-77
2023/10/04 10:05:26;;;;;;;5.07;1.63;;;31.70;80.90;;;;;;5034534;28;21397;-77
2023/10/04 10:07:53;;;;;;;3.70;1.50;;;31.70;80.70;;;;;;5016251;28;20621;-77
2023/10/04 10:10:23;;;;;;;5.27;2.23;;;31.60;80.60;;;;;;5034607;28;20986;-77
2023/10/04 10:12:51;;;;;;;4.43;1.77;;;31.40;78.30;;;;;;5034379;28;20595;-78
2023/10/04 10:15:21;;;;;;;5.13;1.57;;;31.10;77.90;;;;;;5016843;28;20670;-77
2023/10/04 10:17:48;;;;;;;4.90;1.40;;;30.70;76.90;;;;;;5016296;28;21092;-77
2023/10/04 10:20:15;;;;;;;4.90;1.40;;;30.30;76.10;;;;;;5037288;28;20614;-78
2023/10/04 10:22:59;;;;;;;4.10;1.57;;;30.00;76.20;;;;;;5036541;28;20635;-77
2023/10/04 10:25:37;;;;;;;5.87;2.07;;;29.70;76.10;;;;;;5001255;28;20647;-77
2023/10/04 10:28:04;;;;;;;4.40;2.90;;;29.40;76.30;;;;;;5018078;28;20685;-77
2023/10/04 10:30:33;;;;;;;5.93;1.53;;;29.20;77.40;;;;;;5035446;28;20634;-75
2023/10/04 10:33:00;;;;;;;3.97;1.47;;;28.90;75.90;;;;;;5002046;28;20627;-77
2023/10/04 10:35:57;;;;;;;5.97;1.93;;;28.60;76.40;;;;;;5034262;28;20568;-77
2023/10/04 10:38:41;;;;;;;3.73;1.80;;;28.20;75.90;;;;;;4999243;28;20610;-77
2023/10/04 10:41:08;;;;;;;3.50;1.47;;;27.90;76.80;;;;;;5033776;28;20578;-77
2023/10/04 10:43:37;;;;;;;3.27;1.30;;;27.80;78.60;;;;;;5032713;28;20576;-77
2023/10/04 10:46:34;;;;;;;5.77;1.93;;;27.70;79.00;;;;;;5015753;28;20683;-77
2023/10/04 10:48:59;;;;;;;7.27;1.97;;;27.60;77.90;;;;;;5033828;28;20614;-77
2023/10/04 10:51:51;;;;;;;5.67;1.73;;;27.40;77.80;;;;;;5016131;28;20723;-76
2023/10/04 10:54:17;;;;;;;5.20;2.30;;;27.10;75.90;;;;;;5016788;28;20608;-77
2023/10/04 10:56:43;;;;;;;5.30;1.70;;;26.80;77.90;;;;;;5018160;28;20663;-77
2023/10/04 10:59:09;;;;;;;4.57;1.50;;;26.60;77.60;;;;;;5021885;28;20186;-76
2023/10/04 11:01:34;;;;;;;4.50;1.90;;;26.40;78.00;;;;;;5018959;28;20200;-77
2023/10/04 11:04:00;;;;;;;4.37;1.93;;;26.10;78.40;;;;;;5035052;28;20551;-77
2023/10/04 11:06:26;;;;;;;6.03;2.60;;;25.90;78.70;;;;;;5000509;28;20189;-77
2023/10/04 11:08:55;;;;;;;7.80;2.80;;;25.70;78.80;;;;;;4999080;28;20619;-76
2023/10/04 11:11:22;;;;;;;4.80;2.67;;;25.50;78.90;;;;;;5015671;28;20656;-76
2023/10/04 11:13:48;;;;;;;5.23;1.87;;;25.30;79.50;;;;;;5016675;28;20589;-77
2023/10/04 11:16:14;;;;;;;5.00;2.00;;;25.10;79.70;;;;;;5033186;28;20620;-77
2023/10/04 11:18:40;;;;;;;4.40;2.10;;;25.10;80.90;;;;;;5035937;28;21184;-77
2023/10/04 11:21:06;;;;;;;4.70;2.00;;;25.10;81.80;;;;;;5022053;28;20592;-77
2023/10/04 11:23:37;;;;;;;8.07;2.40;;;25.10;82.10;;;;;;5034189;28;20580;-77
2023/10/04 11:26:04;;;;;;;4.87;2.27;;;25.10;82.40;;;;;;5033408;28;20614;-76
2023/10/04 11:28:30;;;;;;;4.40;1.80;;;25.20;82.30;;;;;;4992120;28;20633;-77
2023/10/04 11:30:56;;;;;;;6.80;1.70;;;25.20;83.00;;;;;;5014629;28;20632;-76
2023/10/04 11:33:23;;;;;;;5.13;1.87;;;25.20;83.10;;;;;;5015446;28;21042;-76
2023/10/04 11:35:49;;;;;;;5.83;2.60;;;25.30;83.00;;;;;;5036470;28;20588;-77
2023/10/04 11:38:16;;;;;;;6.37;3.23;;;25.30;83.10;;;;;;5014810;28;20605;-76
2023/10/04 11:40:47;;;;;;;7.20;2.80;;;25.40;82.60;;;;;;5014969;28;20186;-76
2023/10/04 11:43:14;;;;;;;6.30;3.20;;;25.40;82.10;;;;;;5032480;28;20659;-76
2023/10/04 11:45:40;;;;;;;5.97;3.03;;;25.40;81.70;;;;;;5032045;28;20618;-76
2023/10/04 11:48:08;;;;;;;7.70;4.73;;;25.30;81.80;;;;;;5024339;28;20662;-76
2023/10/04 11:50:46;;;;;;;5.53;3.27;;;25.30;81.80;;;;;;5014572;28;20798;-76
2023/10/04 11:53:12;;;;;;;4.97;2.50;;;25.20;81.70;;;;;;5014394;28;20584;-76
2023/10/04 11:55:38;;;;;;;11.33;3.50;;;25.20;82.00;;;;;;5031815;28;20577;-76
2023/10/04 11:58:05;;;;;;;4.97;2.37;;;25.10;82.00;;;;;;5031558;28;20600;-77
2023/10/04 12:00:31;;;;;;;5.00;2.30;;;25.00;81.90;;;;;;5014227;28;20181;-77
2023/10/04 12:02:56;;;;;;;6.80;2.47;;;24.90;82.20;;;;;;5031636;28;20588;-77
2023/10/04 12:05:22;;;;;;;6.00;2.67;;;24.90;82.80;;;;;;5031598;28;20174;-77
2023/10/04 12:07:48;;;;;;;9.00;2.30;;;24.90;82.70;;;;;;4997604;28;20240;-77
2023/10/04 12:10:15;;;;;;;6.13;2.60;;;24.80;82.50;;;;;;5013795;28;20584;-77
2023/10/04 12:12:42;;;;;;;6.30;3.23;;;24.70;82.80;;;;;;5035061;28;20589;-77
2023/10/04 12:15:08;;;;;;;5.53;2.23;;;24.70;83.10;;;;;;5031573;28;20928;-77
2023/10/04 12:17:36;;;;;;;5.57;2.83;;;24.70;83.50;;;;;;5041131;23;20665;-74
2023/10/04 12:20:05;;;;;;;4.63;2.90;;;24.70;83.10;;;;;;5053366;28;21206;-75
2023/10/04 12:22:30;;;;;;;5.40;3.33;;;24.60;83.00;;;;;;5070049;28;20586;-76
2023/10/04 12:24:59;;;;;;;10.37;3.90;;;24.60;82.80;;;;;;5069931;28;20939;-75
2023/10/04 12:27:25;;;;;;;7.50;3.20;;;24.50;82.80;;;;;;5064493;28;20234;-75
2023/10/04 12:29:51;;;;;;;6.93;3.40;;;24.50;82.60;;;;;;5040395;28;20684;-76
2023/10/04 12:32:19;;;;;;;5.73;2.60;;;24.40;82.00;;;;;;5031031;28;21127;-75
2023/10/04 12:34:48;;;;;;;6.83;3.17;;;24.20;82.00;;;;;;5031114;28;20273;-76
2023/10/04 12:37:14;;;;;;;6.73;2.70;;;24.10;81.60;;;;;;5029710;28;20620;-76
2023/10/04 12:39:43;;;;;;;7.17;2.97;;;24.00;81.90;;;;;;5031169;28;20595;-75
2023/10/04 12:42:09;;;;;;;6.80;3.93;;;23.90;82.20;;;;;;5025159;28;20185;-76
2023/10/04 12:44:37;;;;;;;8.43;2.87;;;23.90;82.50;;;;;;5050559;28;20936;-76
2023/10/04 12:47:04;;;;;;;10.43;4.07;;;23.80;82.60;;;;;;5032755;28;20951;-76
2023/10/04 12:49:29;;;;;;;5.17;2.87;;;23.70;82.60;;;;;;5035228;28;20579;-76
2023/10/04 12:51:56;;;;;;;7.97;3.50;;;23.60;82.40;;;;;;5030662;28;20642;-76
2023/10/04 12:54:23;;;;;;;6.40;2.33;;;23.60;82.40;;;;;;5029413;28;20170;-75